Time;durP1;ratioP1;P1;durP2;ratioP2;P2;SDS_P1;SDS_P2;PMS_P1;PMS_P2;Temp;Humidity;BMP_temperature;BMP_pressure;BME280_temperature;BME280_humidity;BME280_pressure;Samples;Min_cycle;Max_cycle;Signal;HPM_P1;HPM_P2
2022/10/04 00:02:02;;;;;;;0.77;0.65;;;;;;;;;;6219891;28;20047;-74
2022/10/04 00:05:07;;;;;;;2.35;1.80;;;;;;;;;;6234750;28;20326;-72
2022/10/04 00:08:28;;;;;;;6.43;0.65;;;;;;;;;;6227544;28;20030;-73
2022/10/04 00:11:33;;;;;;;0.65;0.65;;;;;;;;;;6201060;28;20036;-72
2022/10/04 00:14:38;;;;;;;0.43;0.43;;;;;;;;;;6214836;28;20107;-73
2022/10/04 00:17:38;;;;;;;1.17;1.08;;;;;;;;;;6214938;28;20550;-73
2022/10/04 00:20:49;;;;;;;0.30;0.30;;;;;;;;;;6221632;28;20036;-73
2022/10/04 00:23:49;;;;;;;0.80;0.80;;;;;;;;;;6216767;28;20478;-73
2022/10/04 00:26:49;;;;;;;0.23;0.23;;;;;;;;;;6217069;28;20029;-73
2022/10/04 00:30:02;;;;;;;0.57;0.57;;;;;;;;;;6241290;28;20038;-73
2022/10/04 00:33:02;;;;;;;0.30;0.30;;;;;;;;;;6223492;28;20149;-72
2022/10/04 00:36:28;;;;;;;3.40;2.53;;;;;;;;;;6230440;28;20029;-72
2022/10/04 00:39:31;;;;;;;0.30;0.30;;;;;;;;;;6241807;28;20080;-72
2022/10/04 00:42:39;;;;;;;0.45;0.45;;;;;;;;;;6220850;28;20022;-72
2022/10/04 00:45:43;;;;;;;0.10;0.10;;;;;;;;;;6230525;28;20528;-72
2022/10/04 00:48:43;;;;;;;0.38;0.38;;;;;;;;;;6228743;28;20043;-72
2022/10/04 00:51:47;;;;;;;0.82;0.82;;;;;;;;;;6239936;28;20385;-72
2022/10/04 00:54:53;;;;;;;0.70;0.70;;;;;;;;;;6214094;28;20053;-72
2022/10/04 00:57:58;;;;;;;0.73;0.73;;;;;;;;;;6233646;28;20056;-72
2022/10/04 01:00:58;;;;;;;0.40;0.40;;;;;;;;;;6229844;28;20068;-72
2022/10/04 01:03:59;;;;;;;3.63;3.37;;;;;;;;;;6237066;28;20018;-72
2022/10/04 01:07:01;;;;;;;0.30;0.30;;;;;;;;;;6220595;28;20208;-72
2022/10/04 01:10:05;;;;;;;0.20;0.20;;;;;;;;;;6220786;28;20049;-73
2022/10/04 01:13:14;;;;;;;15.32;1.35;;;;;;;;;;6221586;28;20032;-73
2022/10/04 01:16:19;;;;;;;1.20;0.82;;;;;;;;;;6220989;28;20533;-73
2022/10/04 01:19:22;;;;;;;0.52;0.52;;;;;;;;;;6213626;28;20026;-73
2022/10/04 01:22:42;;;;;;;0.60;0.60;;;;;;;;;;6218319;28;20022;-73
2022/10/04 01:25:44;;;;;;;9.88;1.23;;;;;;;;;;6227331;28;20526;-73
2022/10/04 01:28:44;;;;;;;;;;;;;;;;;;6224936;28;20029;-73
2022/10/04 01:31:46;;;;;;;0.77;0.77;;;;;;;;;;6216126;28;19947;-73
2022/10/04 01:34:46;;;;;;;1.17;1.10;;;;;;;;;;6227691;28;20026;-74
2022/10/04 01:37:46;;;;;;;0.17;0.17;;;;;;;;;;6225647;28;20438;-73
2022/10/04 01:40:53;;;;;;;3.20;1.13;;;;;;;;;;6219267;28;20390;-73
2022/10/04 01:43:56;;;;;;;0.70;0.70;;;;;;;;;;6221136;28;20026;-73
2022/10/04 01:46:59;;;;;;;0.65;0.65;;;;;;;;;;6215379;28;20092;-73
2022/10/04 01:50:01;;;;;;;0.20;0.20;;;;;;;;;;6229919;28;20064;-74
2022/10/04 01:53:07;;;;;;;0.22;0.22;;;;;;;;;;6213610;28;20024;-73
2022/10/04 01:56:16;;;;;;;0.68;0.68;;;;;;;;;;6218317;28;20273;-73
2022/10/04 01:59:19;;;;;;;0.80;0.80;;;;;;;;;;6236621;28;20049;-73
2022/10/04 02:02:33;;;;;;;3.75;1.55;;;;;;;;;;6233627;28;20489;-73
2022/10/04 02:05:39;;;;;;;0.43;0.40;;;;;;;;;;6220239;28;20148;-73
2022/10/04 02:08:44;;;;;;;0.55;0.55;;;;;;;;;;6238582;28;20070;-73
2022/10/04 02:11:49;;;;;;;0.20;0.20;;;;;;;;;;6217684;28;20129;-73
2022/10/04 02:14:54;;;;;;;0.60;0.60;;;;;;;;;;6228704;28;20022;-73
2022/10/04 02:17:55;;;;;;;0.45;0.45;;;;;;;;;;6221547;28;20118;-73
2022/10/04 02:20:56;;;;;;;0.30;0.30;;;;;;;;;;6221919;28;20084;-74
2022/10/04 02:23:57;;;;;;;0.53;0.50;;;;;;;;;;6216752;28;20030;-73
2022/10/04 02:26:57;;;;;;;0.20;0.20;;;;;;;;;;6218356;28;20355;-73
2022/10/04 02:30:02;;;;;;;0.43;0.43;;;;;;;;;;6234581;28;20122;-73
2022/10/04 02:33:03;;;;;;;0.30;0.30;;;;;;;;;;6216909;28;20521;-74
2022/10/04 02:36:07;;;;;;;0.20;0.20;;;;;;;;;;6224121;28;20026;-73
2022/10/04 02:39:07;;;;;;;0.10;0.10;;;;;;;;;;6233857;28;20041;-73
2022/10/04 02:42:32;;;;;;;0.10;0.10;;;;;;;;;;6224807;28;20467;-73
2022/10/04 02:45:42;;;;;;;1.13;1.02;;;;;;;;;;6230115;28;20021;-72
2022/10/04 02:48:42;;;;;;;0.20;0.20;;;;;;;;;;6223564;28;20478;-73
2022/10/04 02:51:45;;;;;;;0.17;0.17;;;;;;;;;;6224088;28;20068;-73
2022/10/04 02:54:52;;;;;;;0.20;0.20;;;;;;;;;;6225956;28;20388;-72
2022/10/04 02:57:53;;;;;;;0.20;0.20;;;;;;;;;;6226522;28;20525;-72
2022/10/04 03:00:57;;;;;;;0.10;0.10;;;;;;;;;;6234434;28;20013;-72
2022/10/04 03:03:58;;;;;;;0.40;0.40;;;;;;;;;;6221779;28;20640;-72
2022/10/04 03:07:03;;;;;;;0.10;0.10;;;;;;;;;;6224451;28;20021;-72
2022/10/04 03:10:08;;;;;;;1.98;1.85;;;;;;;;;;6223681;28;20434;-72
2022/10/04 03:13:08;;;;;;;0.43;0.43;;;;;;;;;;6217727;28;20110;-71
2022/10/04 03:16:08;;;;;;;0.30;0.30;;;;;;;;;;6223496;28;20458;-71
2022/10/04 03:19:09;;;;;;;0.57;0.57;;;;;;;;;;6224566;28;20424;-71
2022/10/04 03:22:10;;;;;;;0.20;0.20;;;;;;;;;;6221021;28;20048;-72
2022/10/04 03:25:15;;;;;;;0.20;0.20;;;;;;;;;;6224016;28;20018;-72
2022/10/04 03:28:15;;;;;;;0.40;0.40;;;;;;;;;;6223999;28;20022;-72
2022/10/04 03:31:18;;;;;;;0.60;0.60;;;;;;;;;;6221503;28;20021;-72
2022/10/04 03:34:20;;;;;;;0.47;0.47;;;;;;;;;;6219952;28;20386;-72
2022/10/04 03:37:20;;;;;;;0.32;0.32;;;;;;;;;;6219375;28;20030;-72
2022/10/04 03:40:26;;;;;;;2.20;2.10;;;;;;;;;;6218540;28;20098;-73
2022/10/04 03:43:30;;;;;;;0.40;0.40;;;;;;;;;;6218925;28;20134;-72
2022/10/04 03:46:31;;;;;;;0.85;0.55;;;;;;;;;;6229278;28;20013;-73
2022/10/04 03:49:34;;;;;;;1.03;1.00;;;;;;;;;;6232385;28;20026;-72
2022/10/04 03:52:36;;;;;;;0.63;0.63;;;;;;;;;;6238705;28;20386;-72
2022/10/04 03:55:39;;;;;;;1.67;1.63;;;;;;;;;;6228926;28;20614;-73
2022/10/04 03:58:39;;;;;;;0.52;0.52;;;;;;;;;;6221775;28;20049;-71
2022/10/04 04:01:46;;;;;;;0.37;0.37;;;;;;;;;;6228954;28;20030;-71
2022/10/04 04:04:52;;;;;;;0.20;0.20;;;;;;;;;;6228133;28;20391;-73
2022/10/04 04:08:02;;;;;;;0.47;0.47;;;;;;;;;;6221856;28;20041;-73
2022/10/04 04:11:04;;;;;;;0.30;0.30;;;;;;;;;;6235083;28;20029;-73
2022/10/04 04:14:11;;;;;;;0.20;0.20;;;;;;;;;;6230095;28;20230;-73
2022/10/04 04:17:30;;;;;;;1.30;1.17;;;;;;;;;;6219486;28;20075;-72
2022/10/04 04:20:32;;;;;;;1.33;1.23;;;;;;;;;;6236526;28;20013;-72
2022/10/04 04:23:35;;;;;;;0.52;0.52;;;;;;;;;;6224554;28;20044;-71
2022/10/04 04:26:35;;;;;;;2.25;2.00;;;;;;;;;;6233065;28;20014;-73
2022/10/04 04:29:48;;;;;;;0.20;0.20;;;;;;;;;;6227844;28;20018;-71
2022/10/04 04:32:50;;;;;;;0.50;0.50;;;;;;;;;;6213411;28;20022;-72
2022/10/04 04:35:54;;;;;;;0.60;0.60;;;;;;;;;;6221184;28;20030;-71
2022/10/04 04:42:29;;;;;;;1.38;1.35;;;;;;;;;;6219303;28;20486;-71
2022/10/04 04:45:31;;;;;;;0.60;0.60;;;;;;;;;;6212732;28;20025;-72
2022/10/04 04:48:31;;;;;;;1.85;1.75;;;;;;;;;;6218193;28;20075;-72
2022/10/04 04:51:32;;;;;;;1.07;1.00;;;;;;;;;;6230762;28;20472;-71
2022/10/04 04:54:33;;;;;;;0.50;0.50;;;;;;;;;;6221772;28;20107;-71
2022/10/04 04:57:33;;;;;;;0.30;0.30;;;;;;;;;;6217812;28;20220;-72
2022/10/04 05:00:37;;;;;;;1.13;1.13;;;;;;;;;;6219715;28;20079;-72
2022/10/04 05:03:37;;;;;;;1.20;0.85;;;;;;;;;;6222893;28;20017;-71
2022/10/04 05:06:45;;;;;;;1.60;1.50;;;;;;;;;;6222790;28;20104;-71
2022/10/04 05:09:45;;;;;;;1.60;1.50;;;;;;;;;;6219690;28;20059;-71
2022/10/04 05:12:45;;;;;;;1.20;1.20;;;;;;;;;;6217526;28;20065;-71
2022/10/04 05:15:48;;;;;;;3.10;1.67;;;;;;;;;;6221060;28;20018;-71
2022/10/04 05:18:53;;;;;;;0.38;0.38;;;;;;;;;;6227539;28;20025;-71
2022/10/04 05:21:55;;;;;;;0.77;0.77;;;;;;;;;;6227832;28;20010;-71
2022/10/04 05:24:59;;;;;;;0.10;0.10;;;;;;;;;;6220226;28;20478;-71
2022/10/04 05:27:59;;;;;;;0.68;0.68;;;;;;;;;;6219256;28;20030;-71
2022/10/04 05:31:19;;;;;;;1.20;1.20;;;;;;;;;;6219664;28;20028;-71
2022/10/04 05:34:28;;;;;;;1.35;1.13;;;;;;;;;;6216193;28;20137;-72
2022/10/04 05:37:47;;;;;;;0.20;0.20;;;;;;;;;;6217115;28;20041;-72
2022/10/04 05:40:54;;;;;;;1.08;0.65;;;;;;;;;;6220681;28;20064;-72
2022/10/04 05:43:54;;;;;;;0.57;0.30;;;;;;;;;;6224670;28;20020;-73
2022/10/04 05:46:58;;;;;;;0.10;0.10;;;;;;;;;;6218590;28;20462;-73
2022/10/04 05:49:59;;;;;;;0.15;0.15;;;;;;;;;;6209721;28;20556;-72
2022/10/04 05:53:08;;;;;;;0.83;0.60;;;;;;;;;;6217289;28;20032;-73
2022/10/04 05:56:28;;;;;;;6.32;0.95;;;;;;;;;;6216478;28;20026;-73
2022/10/04 05:59:46;;;;;;;1.50;1.40;;;;;;;;;;6213911;28;20045;-73
2022/10/04 06:02:49;;;;;;;1.13;1.10;;;;;;;;;;6214048;28;20033;-73
2022/10/04 06:05:50;;;;;;;0.30;0.30;;;;;;;;;;6229113;28;20026;-73
2022/10/04 06:09:01;;;;;;;1.20;1.03;;;;;;;;;;6219874;28;20049;-73
2022/10/04 06:12:12;;;;;;;2.80;2.15;;;;;;;;;;6216857;28;20025;-73
2022/10/04 06:15:15;;;;;;;3.43;0.57;;;;;;;;;;6234832;28;20026;-73
2022/10/04 06:18:16;;;;;;;0.47;0.47;;;;;;;;;;6222808;28;20285;-74
2022/10/04 06:21:20;;;;;;;1.10;1.08;;;;;;;;;;6227617;28;20018;-73
2022/10/04 06:24:24;;;;;;;0.47;0.47;;;;;;;;;;6240410;28;20010;-73
2022/10/04 06:27:42;;;;;;;0.10;0.10;;;;;;;;;;6233606;28;20014;-74
2022/10/04 06:30:52;;;;;;;1.00;1.00;;;;;;;;;;6229199;28;20084;-73
2022/10/04 06:34:07;;;;;;;1.27;0.75;;;;;;;;;;6222401;28;20076;-73
2022/10/04 06:37:24;;;;;;;4.80;0.55;;;;;;;;;;6217260;28;20562;-73
2022/10/04 06:40:25;;;;;;;0.30;0.30;;;;;;;;;;6221659;28;20102;-73
2022/10/04 06:43:37;;;;;;;8.38;4.43;;;;;;;;;;6237396;28;20013;-74
2022/10/04 06:46:49;;;;;;;0.80;0.80;;;;;;;;;;6227461;28;20017;-73
2022/10/04 06:49:52;;;;;;;4.60;3.03;;;;;;;;;;6215327;28;20018;-73
2022/10/04 06:53:06;;;;;;;0.85;0.85;;;;;;;;;;6218187;28;20088;-73
2022/10/04 06:56:15;;;;;;;7.55;3.03;;;;;;;;;;6226179;28;20504;-73
2022/10/04 06:59:20;;;;;;;1.05;1.05;;;;;;;;;;6225746;28;20037;-73
2022/10/04 07:02:33;;;;;;;0.98;0.98;;;;;;;;;;6214113;28;20037;-73
2022/10/04 07:05:45;;;;;;;1.58;1.48;;;;;;;;;;6219790;28;20644;-73
2022/10/04 07:08:49;;;;;;;2.30;0.68;;;;;;;;;;6219075;28;20140;-73
2022/10/04 07:11:53;;;;;;;1.83;1.70;;;;;;;;;;6227548;28;20100;-73
2022/10/04 07:14:59;;;;;;;1.50;1.40;;;;;;;;;;6215657;28;20029;-72
2022/10/04 07:18:04;;;;;;;0.35;0.30;;;;;;;;;;6213911;28;20030;-71
2022/10/04 07:21:08;;;;;;;2.63;2.42;;;;;;;;;;6215237;28;20470;-71
2022/10/04 07:24:10;;;;;;;10.27;5.53;;;;;;;;;;6232369;28;20017;-71
2022/10/04 07:27:12;;;;;;;0.50;0.50;;;;;;;;;;6226789;28;20024;-71
2022/10/04 07:30:17;;;;;;;1.75;1.65;;;;;;;;;;6218301;28;20084;-72
2022/10/04 07:33:20;;;;;;;3.25;2.25;;;;;;;;;;6221396;28;20033;-71
2022/10/04 07:36:23;;;;;;;0.40;0.40;;;;;;;;;;6223147;28;20097;-71
2022/10/04 07:39:25;;;;;;;1.05;0.95;;;;;;;;;;6216596;28;20444;-71
2022/10/04 07:42:28;;;;;;;1.10;1.00;;;;;;;;;;6219094;28;20437;-72
2022/10/04 07:45:32;;;;;;;12.73;0.85;;;;;;;;;;6225024;28;20048;-71
2022/10/04 07:48:33;;;;;;;1.80;1.70;;;;;;;;;;6232694;28;20420;-72
2022/10/04 07:51:40;;;;;;;0.40;0.40;;;;;;;;;;6228114;28;20018;-71
2022/10/04 07:54:47;;;;;;;0.40;0.40;;;;;;;;;;6222037;28;20038;-72
2022/10/04 07:57:50;;;;;;;0.50;0.47;;;;;;;;;;6231142;28;20115;-72
2022/10/04 08:00:50;;;;;;;0.28;0.28;;;;;;;;;;6221905;28;20494;-72
2022/10/04 08:04:08;;;;;;;1.55;1.45;;;;;;;;;;6228300;28;20022;-72
2022/10/04 08:07:14;;;;;;;0.40;0.40;;;;;;;;;;6226906;28;20238;-72
2022/10/04 08:10:17;;;;;;;0.55;0.50;;;;;;;;;;6219013;28;20508;-75
2022/10/04 08:13:18;;;;;;;1.08;0.73;;;;;;;;;;6227967;28;20021;-72
2022/10/04 08:16:41;;;;;;;1.90;1.52;;;;;;;;;;6227766;28;20129;-72
2022/10/04 08:19:46;;;;;;;5.68;1.20;;;;;;;;;;6226164;28;20022;-73
2022/10/04 08:23:08;;;;;;;2.22;2.08;;;;;;;;;;6238727;28;20009;-73
2022/10/04 08:26:13;;;;;;;0.65;0.65;;;;;;;;;;6222023;28;20022;-72
2022/10/04 08:29:41;;;;;;;3.53;1.63;;;;;;;;;;6228737;28;20021;-72
2022/10/04 08:32:54;;;;;;;0.57;0.57;;;;;;;;;;6224138;28;20084;-72
2022/10/04 08:36:14;;;;;;;2.03;1.85;;;;;;;;;;6224600;28;20026;-72
2022/10/04 08:39:33;;;;;;;3.03;1.90;;;;;;;;;;6195445;28;20041;-72
2022/10/04 08:42:45;;;;;;;0.50;0.50;;;;;;;;;;6224380;28;20057;-73
2022/10/04 08:45:58;;;;;;;1.30;1.20;;;;;;;;;;6223533;28;20057;-73
2022/10/04 08:49:16;;;;;;;0.65;0.65;;;;;;;;;;6234226;28;20104;-73
2022/10/04 08:52:23;;;;;;;2.33;2.13;;;;;;;;;;6222171;28;20537;-73
2022/10/04 08:55:42;;;;;;;0.57;0.57;;;;;;;;;;6227243;28;20049;-73
2022/10/04 08:59:05;;;;;;;0.77;0.77;;;;;;;;;;6232180;28;20121;-73
2022/10/04 09:02:15;;;;;;;21.20;9.20;;;;;;;;;;6220696;28;20304;-73
2022/10/04 09:05:33;;;;;;;8.15;4.47;;;;;;;;;;6231330;28;20025;-73
2022/10/04 09:08:52;;;;;;;3.20;3.00;;;;;;;;;;6238277;28;20022;-73
2022/10/04 09:12:02;;;;;;;1.33;1.33;;;;;;;;;;6214930;28;20037;-73
2022/10/04 09:15:21;;;;;;;2.42;1.17;;;;;;;;;;6211620;28;20026;-73
2022/10/04 09:18:36;;;;;;;1.02;1.02;;;;;;;;;;6219708;28;20037;-73
2022/10/04 09:21:42;;;;;;;2.15;1.85;;;;;;;;;;6209898;28;20017;-73
2022/10/04 09:24:45;;;;;;;3.03;0.93;;;;;;;;;;6217864;28;20410;-73
2022/10/04 09:27:48;;;;;;;0.85;0.85;;;;;;;;;;6218651;28;20096;-72
2022/10/04 09:30:49;;;;;;;1.75;1.55;;;;;;;;;;6216282;28;20105;-71
2022/10/04 09:33:59;;;;;;;2.17;1.97;;;;;;;;;;6217106;28;20089;-72
2022/10/04 09:37:13;;;;;;;0.93;0.93;;;;;;;;;;6223488;28;20060;-72
2022/10/04 09:40:28;;;;;;;1.17;1.05;;;;;;;;;;6217957;28;20032;-72
2022/10/04 09:43:45;;;;;;;2.05;1.90;;;;;;;;;;6218448;28;20528;-72
2022/10/04 09:46:46;;;;;;;0.20;0.20;;;;;;;;;;6219532;28;20022;-72
2022/10/04 09:49:46;;;;;;;0.80;0.80;;;;;;;;;;6215667;28;20497;-71
2022/10/04 09:53:06;;;;;;;1.20;1.20;;;;;;;;;;6215787;28;20064;-72
2022/10/04 09:56:09;;;;;;;0.40;0.40;;;;;;;;;;6214768;28;20532;-72
2022/10/04 09:59:09;;;;;;;0.20;0.20;;;;;;;;;;6218299;28;20046;-72
2022/10/04 10:02:13;;;;;;;0.40;0.40;;;;;;;;;;6218622;28;20124;-72
2022/10/04 10:05:15;;;;;;;5.00;1.95;;;;;;;;;;6220778;28;20088;-72
2022/10/04 10:08:21;;;;;;;0.93;0.93;;;;;;;;;;6218106;28;20091;-72
2022/10/04 10:15:18;;;;;;;1.85;1.75;;;;;;;;;;6210231;28;20018;-72
2022/10/04 10:18:25;;;;;;;1.52;1.42;;;;;;;;;;6226073;28;20026;-72
2022/10/04 10:21:55;;;;;;;2.85;1.83;;;;;;;;;;6224222;28;20018;-73
2022/10/04 10:24:55;;;;;;;0.40;0.40;;;;;;;;;;6214302;28;20043;-72
2022/10/04 10:28:14;;;;;;;0.73;0.30;;;;;;;;;;6226064;28;20034;-73
2022/10/04 10:31:14;;;;;;;0.20;0.20;;;;;;;;;;6225174;28;20033;-73
2022/10/04 10:34:24;;;;;;;0.32;0.32;;;;;;;;;;6219720;28;20029;-73
2022/10/04 10:37:34;;;;;;;3.20;2.05;;;;;;;;;;6216367;28;20056;-72
2022/10/04 10:40:35;;;;;;;1.20;1.10;;;;;;;;;;6218640;28;20101;-73
2022/10/04 10:43:45;;;;;;;1.13;1.08;;;;;;;;;;6213651;28;20501;-73
2022/10/04 10:47:09;;;;;;;1.08;1.08;;;;;;;;;;6214818;28;20023;-72
2022/10/04 10:50:19;;;;;;;14.60;1.17;;;;;;;;;;6217564;28;20085;-72
2022/10/04 10:53:34;;;;;;;0.52;0.52;;;;;;;;;;6212780;28;20026;-72
2022/10/04 10:56:41;;;;;;;0.20;0.20;;;;;;;;;;6219657;28;20057;-72
2022/10/04 10:59:53;;;;;;;0.63;0.63;;;;;;;;;;6214056;28;20057;-73
2022/10/04 11:02:56;;;;;;;0.85;0.85;;;;;;;;;;6218944;28;20115;-72
2022/10/04 11:06:00;;;;;;;5.03;1.17;;;;;;;;;;6220994;28;20014;-72
2022/10/04 11:09:19;;;;;;;0.20;0.20;;;;;;;;;;6233873;28;20029;-72
2022/10/04 11:12:19;;;;;;;0.73;0.73;;;;;;;;;;6220868;28;20072;-72
2022/10/04 11:15:38;;;;;;;0.55;0.55;;;;;;;;;;6222738;28;20022;-73
2022/10/04 11:18:57;;;;;;;0.20;0.20;;;;;;;;;;6224639;28;20026;-73
2022/10/04 11:22:07;;;;;;;0.10;0.10;;;;;;;;;;6217390;28;20493;-73
2022/10/04 11:25:38;;;;;;;0.20;0.20;;;;;;;;;;6220954;28;20014;-74
2022/10/04 11:28:45;;;;;;;0.20;0.20;;;;;;;;;;6201330;28;20520;-73
2022/10/04 11:31:57;;;;;;;0.47;0.47;;;;;;;;;;6219297;28;20405;-73
2022/10/04 11:35:07;;;;;;;0.30;0.30;;;;;;;;;;6214699;28;20011;-73
2022/10/04 11:38:26;;;;;;;0.80;0.80;;;;;;;;;;6230898;28;20015;-73
2022/10/04 11:41:42;;;;;;;0.20;0.20;;;;;;;;;;6213999;28;20054;-73
2022/10/04 11:44:54;;;;;;;0.10;0.10;;;;;;;;;;6232753;28;20021;-73
2022/10/04 11:47:54;;;;;;;1.48;1.38;;;;;;;;;;6218933;28;20018;-72
2022/10/04 11:51:13;;;;;;;0.43;0.43;;;;;;;;;;6216036;28;20045;-73
2022/10/04 11:54:23;;;;;;;1.67;1.25;;;;;;;;;;6214867;28;20417;-72
2022/10/04 11:57:27;;;;;;;0.10;0.10;;;;;;;;;;6216402;28;20053;-72
2022/10/04 12:00:46;;;;;;;1.48;1.38;;;;;;;;;;6217383;28;20011;-72
2022/10/04 12:04:02;;;;;;;0.77;0.75;;;;;;;;;;6219639;28;20025;-72
2022/10/04 12:07:12;;;;;;;0.40;0.40;;;;;;;;;;6217367;28;20022;-72
2022/10/04 12:10:31;;;;;;;0.43;0.43;;;;;;;;;;6219454;28;20210;-72
2022/10/04 12:13:31;;;;;;;0.30;0.30;;;;;;;;;;6222313;28;20084;-72
2022/10/04 12:16:46;;;;;;;0.25;0.25;;;;;;;;;;6218447;28;20033;-72
2022/10/04 12:20:05;;;;;;;1.45;1.38;;;;;;;;;;6219942;28;20026;-72
2022/10/04 12:23:08;;;;;;;0.95;0.95;;;;;;;;;;6216327;28;20473;-72
2022/10/04 12:26:31;;;;;;;0.65;0.65;;;;;;;;;;6222109;28;20018;-72
2022/10/04 12:29:50;;;;;;;1.23;1.08;;;;;;;;;;6215857;28;20072;-72
2022/10/04 12:33:01;;;;;;;0.40;0.40;;;;;;;;;;6216793;28;20022;-72
2022/10/04 12:36:12;;;;;;;0.43;0.43;;;;;;;;;;6224053;28;20036;-72
2022/10/04 12:39:12;;;;;;;0.70;0.70;;;;;;;;;;6228261;28;20354;-73
2022/10/04 12:42:28;;;;;;;4.55;2.17;;;;;;;;;;6223363;28;20409;-72
2022/10/04 12:45:51;;;;;;;0.47;0.47;;;;;;;;;;6225445;28;20038;-73
2022/10/04 12:49:00;;;;;;;0.20;0.20;;;;;;;;;;6218430;28;20497;-73
2022/10/04 12:52:07;;;;;;;0.08;0.08;;;;;;;;;;6225023;28;20044;-73
2022/10/04 12:55:39;;;;;;;0.10;0.10;;;;;;;;;;6211136;28;20020;-72
2022/10/04 12:58:58;;;;;;;0.30;0.30;;;;;;;;;;6211006;28;20054;-72
2022/10/04 13:02:19;;;;;;;1.48;0.90;;;;;;;;;;6237311;28;20056;-72
2022/10/04 13:05:32;;;;;;;0.85;0.85;;;;;;;;;;6220833;28;20018;-73
2022/10/04 13:09:08;;;;;;;1.60;1.50;;;;;;;;;;6219566;28;20101;-73
2022/10/04 13:12:14;;;;;;;0.10;0.10;;;;;;;;;;6189770;28;20121;-73
2022/10/04 13:15:33;;;;;;;0.85;0.75;;;;;;;;;;6216689;28;20104;-73
2022/10/04 13:18:42;;;;;;;0.20;0.20;;;;;;;;;;6212473;28;20105;-73
2022/10/04 13:21:55;;;;;;;0.55;0.50;;;;;;;;;;6227299;28;20021;-73
2022/10/04 13:25:03;;;;;;;0.00;0.00;;;;;;;;;;6214913;28;20371;-73
2022/10/04 13:28:10;;;;;;;0.30;0.30;;;;;;;;;;6227339;28;20029;-74
2022/10/04 13:31:22;;;;;;;0.10;0.10;;;;;;;;;;6230771;28;20022;-74
2022/10/04 13:34:25;;;;;;;0.10;0.10;;;;;;;;;;6214173;28;22072;-73
2022/10/04 13:37:34;;;;;;;0.35;0.35;;;;;;;;;;6210263;28;20033;-73
2022/10/04 13:41:07;;;;;;;0.10;0.10;;;;;;;;;;6215825;28;20453;-73
2022/10/04 13:44:07;;;;;;;0.00;0.00;;;;;;;;;;6193056;28;20480;-73
2022/10/04 13:47:13;;;;;;;0.20;0.20;;;;;;;;;;6218647;28;20029;-73
2022/10/04 13:50:13;;;;;;;1.45;1.35;;;;;;;;;;6216122;28;20026;-75
2022/10/04 13:57:01;;;;;;;0.35;0.35;;;;;;;;;;6217047;28;20034;-73
2022/10/04 14:00:04;;;;;;;0.20;0.20;;;;;;;;;;6215402;28;20037;-73
2022/10/04 14:03:23;;;;;;;0.70;0.55;;;;;;;;;;6218087;28;20018;-73
2022/10/04 14:06:35;;;;;;;0.40;0.40;;;;;;;;;;6217087;28;20025;-73
2022/10/04 14:09:38;;;;;;;0.20;0.20;;;;;;;;;;6215070;28;20485;-73
2022/10/04 14:12:44;;;;;;;0.70;0.70;;;;;;;;;;6221476;28;20038;-73
2022/10/04 14:15:50;;;;;;;0.65;0.65;;;;;;;;;;6214847;28;20040;-73
2022/10/04 14:19:09;;;;;;;1.40;1.40;;;;;;;;;;6216092;28;20034;-73
2022/10/04 14:22:27;;;;;;;4.72;1.75;;;;;;;;;;6218385;28;20509;-73
2022/10/04 14:25:29;;;;;;;0.25;0.25;;;;;;;;;;6218178;28;20512;-74
2022/10/04 14:28:38;;;;;;;3.40;0.98;;;;;;;;;;6215350;28;20038;-73
2022/10/04 14:31:38;;;;;;;1.15;1.15;;;;;;;;;;6211185;28;20018;-73
2022/10/04 14:34:53;;;;;;;0.57;0.57;;;;;;;;;;6214865;28;20639;-73
2022/10/04 14:38:19;;;;;;;0.40;0.40;;;;;;;;;;6217706;28;20021;-73
2022/10/04 14:41:34;;;;;;;0.50;0.50;;;;;;;;;;6228546;28;20045;-74
2022/10/04 14:44:48;;;;;;;0.40;0.40;;;;;;;;;;6224872;28;20068;-74
2022/10/04 14:48:06;;;;;;;0.40;0.40;;;;;;;;;;6221120;28;20041;-74
2022/10/04 14:51:09;;;;;;;0.52;0.52;;;;;;;;;;6217790;28;20030;-74
2022/10/04 14:54:12;;;;;;;2.75;1.67;;;;;;;;;;6220948;28;20018;-73
2022/10/04 14:57:31;;;;;;;0.35;0.35;;;;;;;;;;6216392;28;20082;-73
2022/10/04 15:00:50;;;;;;;0.43;0.43;;;;;;;;;;6223375;28;20525;-73
2022/10/04 15:03:59;;;;;;;0.57;0.57;;;;;;;;;;6216938;28;20562;-74
2022/10/04 15:07:18;;;;;;;0.40;0.40;;;;;;;;;;6220425;28;20026;-74
2022/10/04 15:10:19;;;;;;;0.57;0.57;;;;;;;;;;6224154;28;20613;-74
2022/10/04 15:13:24;;;;;;;2.70;0.97;;;;;;;;;;6218445;28;20072;-74
2022/10/04 15:16:43;;;;;;;0.20;0.20;;;;;;;;;;6217739;28;20020;-74
2022/10/04 15:20:02;;;;;;;1.90;1.42;;;;;;;;;;6222609;28;20034;-73
2022/10/04 15:23:17;;;;;;;2.53;1.30;;;;;;;;;;6219594;28;20010;-73
2022/10/04 15:26:17;;;;;;;0.82;0.82;;;;;;;;;;6229864;28;20017;-73
2022/10/04 15:29:25;;;;;;;1.70;1.25;;;;;;;;;;6227412;28;20374;-74
2022/10/04 15:32:34;;;;;;;1.05;1.05;;;;;;;;;;6221620;28;20026;-74
2022/10/04 15:35:48;;;;;;;2.58;2.38;;;;;;;;;;6227904;28;20048;-73
2022/10/04 15:39:02;;;;;;;0.60;0.60;;;;;;;;;;6224230;28;20483;-73
2022/10/04 15:42:09;;;;;;;4.63;1.60;;;;;;;;;;6219415;28;20018;-72
2022/10/04 15:45:19;;;;;;;2.60;2.40;;;;;;;;;;6218116;28;20453;-73
2022/10/04 15:48:22;;;;;;;1.88;1.77;;;;;;;;;;6213847;28;20497;-73
2022/10/04 15:51:41;;;;;;;5.68;4.18;;;;;;;;;;6216051;28;20442;-73
2022/10/04 15:55:06;;;;;;;10.57;4.43;;;;;;;;;;6220661;28;20064;-73
2022/10/04 15:58:27;;;;;;;2.72;2.53;;;;;;;;;;6211886;28;20068;-74
2022/10/04 16:01:36;;;;;;;3.33;3.10;;;;;;;;;;6222309;28;20482;-73
2022/10/04 16:04:55;;;;;;;2.58;2.38;;;;;;;;;;6225940;28;20097;-73
2022/10/04 16:08:08;;;;;;;0.70;0.70;;;;;;;;;;6227703;28;20072;-73
2022/10/04 16:11:29;;;;;;;0.63;0.63;;;;;;;;;;6218543;28;20437;-74
2022/10/04 16:14:37;;;;;;;2.20;2.08;;;;;;;;;;6215138;28;20041;-74
2022/10/04 16:18:04;;;;;;;0.95;0.95;;;;;;;;;;6233362;28;20064;-73
2022/10/04 16:21:14;;;;;;;3.30;2.53;;;;;;;;;;6211682;28;20116;-73
2022/10/04 16:24:21;;;;;;;2.05;1.88;;;;;;;;;;6227594;28;20032;-73
2022/10/04 16:27:28;;;;;;;6.18;2.75;;;;;;;;;;6228090;28;20132;-73
2022/10/04 16:30:52;;;;;;;9.82;4.28;;;;;;;;;;6224514;28;20083;-75
2022/10/04 16:33:55;;;;;;;7.65;4.78;;;;;;;;;;6221624;28;20065;-73
2022/10/04 16:36:58;;;;;;;7.63;5.43;;;;;;;;;;6223735;28;20044;-74
2022/10/04 16:40:19;;;;;;;10.80;6.38;;;;;;;;;;6221366;28;20034;-74
2022/10/04 16:43:19;;;;;;;5.95;5.15;;;;;;;;;;6214937;28;20065;-74
2022/10/04 16:46:43;;;;;;;5.60;5.30;;;;;;;;;;6216934;28;20513;-74
2022/10/04 16:49:48;;;;;;;2.80;2.58;;;;;;;;;;6227776;28;20037;-74
2022/10/04 16:52:59;;;;;;;4.13;3.88;;;;;;;;;;6220290;28;20430;-73
2022/10/04 16:56:23;;;;;;;7.80;4.50;;;;;;;;;;6218457;28;20095;-73
2022/10/04 16:59:35;;;;;;;14.75;7.97;;;;;;;;;;6206717;28;20506;-74
2022/10/04 17:02:45;;;;;;;8.90;5.05;;;;;;;;;;6225351;28;20017;-74
2022/10/04 17:06:10;;;;;;;7.93;5.03;;;;;;;;;;6227006;28;20096;-73
2022/10/04 17:09:31;;;;;;;7.63;5.55;;;;;;;;;;6213193;28;20033;-74
2022/10/04 17:12:36;;;;;;;7.45;6.65;;;;;;;;;;6217102;28;20026;-74
2022/10/04 17:15:36;;;;;;;3.45;3.08;;;;;;;;;;6225625;28;20028;-74
2022/10/04 17:18:48;;;;;;;6.20;2.65;;;;;;;;;;6233798;28;20052;-74
2022/10/04 17:22:08;;;;;;;4.30;2.40;;;;;;;;;;6227464;28;20488;-74
2022/10/04 17:25:08;;;;;;;6.25;5.43;;;;;;;;;;6220641;28;20053;-74
2022/10/04 17:28:11;;;;;;;9.88;5.90;;;;;;;;;;6219324;28;20022;-73
2022/10/04 17:31:14;;;;;;;3.05;2.88;;;;;;;;;;6219743;28;20520;-74
2022/10/04 17:34:35;;;;;;;5.63;5.20;;;;;;;;;;6224287;28;20030;-74
2022/10/04 17:37:58;;;;;;;9.27;8.40;;;;;;;;;;6213206;28;20084;-74
2022/10/04 17:41:11;;;;;;;11.13;9.23;;;;;;;;;;6215767;28;20024;-74
2022/10/04 17:44:21;;;;;;;10.00;7.32;;;;;;;;;;6217900;28;20100;-74
2022/10/04 17:47:26;;;;;;;8.13;7.50;;;;;;;;;;6219889;28;20037;-75
2022/10/04 17:57:21;;;;;;;5.68;5.13;;;;;;;;;;6217553;28;20418;-73
2022/10/04 18:00:23;;;;;;;17.30;8.55;;;;;;;;;;6220009;28;20057;-75
2022/10/04 18:03:30;;;;;;;4.38;4.07;;;;;;;;;;6214731;28;20025;-74
2022/10/04 18:06:34;;;;;;;11.00;6.50;;;;;;;;;;6218092;28;20029;-75
2022/10/04 18:09:44;;;;;;;11.70;3.28;;;;;;;;;;6223279;28;20029;-75
2022/10/04 18:12:44;;;;;;;7.32;4.40;;;;;;;;;;6216183;28;20180;-73
2022/10/04 18:15:51;;;;;;;5.28;3.17;;;;;;;;;;6224472;28;20394;-73
2022/10/04 18:18:52;;;;;;;4.90;4.50;;;;;;;;;;6217950;28;20018;-73
2022/10/04 18:21:55;;;;;;;9.60;3.33;;;;;;;;;;6215821;28;20041;-73
2022/10/04 18:25:12;;;;;;;6.90;3.95;;;;;;;;;;6211389;28;20436;-75
2022/10/04 18:28:19;;;;;;;1.65;1.55;;;;;;;;;;6220127;28;20561;-76
2022/10/04 18:31:19;;;;;;;8.00;3.88;;;;;;;;;;6214832;28;20018;-73
2022/10/04 18:34:27;;;;;;;2.22;2.13;;;;;;;;;;6217133;28;20111;-74
2022/10/04 18:37:31;;;;;;;2.58;2.38;;;;;;;;;;6227271;28;20018;-74
2022/10/04 18:40:33;;;;;;;1.67;1.58;;;;;;;;;;6217205;28;20043;-75
2022/10/04 18:43:41;;;;;;;2.05;1.95;;;;;;;;;;6212464;28;20022;-75
2022/10/04 18:46:42;;;;;;;1.90;1.77;;;;;;;;;;6212746;28;20074;-75
2022/10/04 18:49:46;;;;;;;1.45;1.35;;;;;;;;;;6217726;28;20525;-74
2022/10/04 18:53:06;;;;;;;2.08;1.63;;;;;;;;;;6215549;28;20053;-75
2022/10/04 18:56:07;;;;;;;0.50;0.50;;;;;;;;;;6209984;28;20474;-75
2022/10/04 19:03:12;;;;;;;1.27;1.27;;;;;;;;;;6225565;28;20049;-74
2022/10/04 19:06:25;;;;;;;2.03;1.92;;;;;;;;;;6220664;28;20018;-75
2022/10/04 19:09:28;;;;;;;1.45;1.40;;;;;;;;;;6220775;28;20052;-75
2022/10/04 19:12:34;;;;;;;3.33;2.53;;;;;;;;;;6219263;28;20056;-75